createdAt,value
2022-12-27T00:00:40.609Z,0
2022-12-27T00:01:40.677Z,0
2022-12-27T00:02:42.267Z,0
2022-12-27T00:03:42.203Z,0
2022-12-27T00:04:43.447Z,0
2022-12-27T00:05:43.433Z,0
2022-12-27T00:06:43.481Z,0
2022-12-27T00:07:44.709Z,0
2022-12-27T00:08:45.342Z,0
2022-12-27T00:09:46.279Z,0
2022-12-27T00:10:47.492Z,0
2022-12-27T00:11:47.556Z,0
2022-12-27T00:12:48.507Z,0
2022-12-27T00:13:48.872Z,0
2022-12-27T00:14:50.190Z,0
2022-12-27T00:15:50.411Z,0
2022-12-27T00:16:51.539Z,0
2022-12-27T00:17:52.087Z,0
2022-12-27T00:18:52.029Z,0
2022-12-27T00:19:52.991Z,0
2022-12-27T00:20:53.949Z,0
2022-12-27T00:21:54.150Z,0
2022-12-27T00:22:54.641Z,0
2022-12-27T00:23:55.137Z,0
2022-12-27T00:24:55.366Z,0
2022-12-27T00:25:55.053Z,0
2022-12-27T00:26:56.108Z,0
2022-12-27T00:27:56.357Z,0
2022-12-27T00:28:56.579Z,0
2022-12-27T00:29:56.532Z,0
2022-12-27T00:30:57.450Z,0
2022-12-27T00:31:58.551Z,0
2022-12-27T00:32:59.508Z,0
2022-12-27T00:33:59.467Z,0
2022-12-27T00:35:00.465Z,0
2022-12-27T00:36:01.982Z,0
2022-12-27T00:37:02.279Z,0
2022-12-27T00:38:02.804Z,0
2022-12-27T00:39:02.714Z,0
2022-12-27T00:40:03.370Z,0
2022-12-27T00:41:04.616Z,0
2022-12-27T00:42:04.535Z,0
2022-12-27T00:43:05.164Z,0
2022-12-27T00:44:06.105Z,0
2022-12-27T00:45:07.399Z,0
2022-12-27T00:46:07.877Z,0
2022-12-27T00:47:07.700Z,0
2022-12-27T00:48:08.653Z,0
2022-12-27T00:49:09.672Z,0
2022-12-27T00:50:09.942Z,0
2022-12-27T00:51:10.184Z,0
2022-12-27T00:52:10.860Z,0
2022-12-27T00:53:12.100Z,0
2022-12-27T00:54:11.500Z,0
2022-12-27T00:55:13.013Z,0
2022-12-27T00:56:12.899Z,0
2022-12-27T00:57:14.194Z,0
2022-12-27T00:58:14.688Z,0
2022-12-27T00:59:14.366Z,0
2022-12-27T01:00:22.024Z,0
2022-12-27T01:01:16.553Z,0
2022-12-27T01:02:16.708Z,0
2022-12-27T01:03:17.803Z,0
2022-12-27T01:04:17.569Z,0
2022-12-27T01:05:18.825Z,0
2022-12-27T01:06:18.988Z,0
2022-12-27T01:07:20.053Z,0
2022-12-27T01:08:20.284Z,0
2022-12-27T01:09:20.795Z,0
2022-12-27T01:10:20.404Z,0
2022-12-27T01:11:21.060Z,0
2022-12-27T01:12:22.286Z,0
2022-12-27T01:13:21.946Z,0
2022-12-27T01:14:22.666Z,0
2022-12-27T01:15:23.888Z,0
2022-12-27T01:16:24.776Z,0
2022-12-27T01:17:25.303Z,0
2022-12-27T01:18:25.804Z,0
2022-12-27T01:19:25.736Z,0
2022-12-27T01:20:26.261Z,0
2022-12-27T01:21:26.241Z,0
2022-12-27T01:22:26.212Z,0
2022-12-27T01:23:27.736Z,0
2022-12-27T01:24:27.955Z,0
2022-12-27T01:25:29.175Z,0
2022-12-27T01:26:29.095Z,0
2022-12-27T01:27:29.965Z,0
2022-12-27T01:28:30.619Z,0
2022-12-27T01:29:31.543Z,0
2022-12-27T01:30:32.787Z,0
2022-12-27T01:31:33.253Z,0
2022-12-27T01:32:33.501Z,0
2022-12-27T01:33:34.732Z,0
2022-12-27T01:34:34.380Z,0
2022-12-27T01:35:35.611Z,0
2022-12-27T01:36:35.912Z,0
2022-12-27T01:37:35.351Z,0
2022-12-27T01:38:36.007Z,0
2022-12-27T01:39:36.930Z,0
2022-12-27T01:40:38.130Z,0
2022-12-27T01:41:38.374Z,0
2022-12-27T01:42:38.601Z,0
2022-12-27T01:43:38.499Z,0
2022-12-27T01:44:38.868Z,0
2022-12-27T01:45:41.025Z,0
2022-12-27T01:46:40.274Z,0
2022-12-27T01:47:40.322Z,0
2022-12-27T01:48:41.835Z,0
2022-12-27T01:49:42.059Z,0
2022-12-27T01:50:42.043Z,0
2022-12-27T01:51:43.563Z,0
2022-12-27T01:52:45.885Z,0
2022-12-27T01:53:44.104Z,0
2022-12-27T01:54:45.322Z,0
2022-12-27T01:55:45.252Z,0
2022-12-27T01:56:46.743Z,0
2022-12-27T01:57:47.590Z,0
2022-12-27T01:58:47.949Z,0
2022-12-27T01:59:48.845Z,0
2022-12-27T02:00:49.889Z,0
2022-12-27T02:01:50.479Z,0
2022-12-27T02:02:52.039Z,0
2022-12-27T02:03:51.034Z,0
2022-12-27T02:04:50.962Z,0
2022-12-27T02:05:52.251Z,0
2022-12-27T02:06:53.199Z,0
2022-12-27T02:07:53.977Z,0
2022-12-27T02:08:53.889Z,0
2022-12-27T02:09:55.184Z,0
2022-12-27T02:10:55.098Z,0
2022-12-27T02:11:55.729Z,0
2022-12-27T02:12:56.930Z,0
2022-12-27T02:13:56.886Z,0
2022-12-27T02:14:58.396Z,0
2022-12-27T02:15:58.624Z,0
2022-12-27T02:16:59.459Z,0
2022-12-27T02:17:59.796Z,0
2022-12-27T02:19:00.324Z,0
2022-12-27T02:20:00.652Z,0
2022-12-27T02:21:01.166Z,0
2022-12-27T02:22:01.420Z,0
2022-12-27T02:23:02.044Z,0
2022-12-27T02:24:03.991Z,0
2022-12-27T02:25:03.522Z,0
2022-12-27T02:26:04.646Z,0
2022-12-27T02:27:04.559Z,0
2022-12-27T02:28:05.863Z,0
2022-12-27T02:29:05.800Z,0
2022-12-27T02:30:06.996Z,0
2022-12-27T02:31:07.845Z,0
2022-12-27T02:32:07.798Z,0
2022-12-27T02:33:08.717Z,0
2022-12-27T02:34:09.680Z,0
2022-12-27T02:35:11.170Z,0
2022-12-27T02:36:10.836Z,0
2022-12-27T02:37:11.519Z,0
2022-12-27T02:38:12.248Z,0
2022-12-27T02:39:13.750Z,0
2022-12-27T02:40:13.671Z,0
2022-12-27T02:41:13.304Z,0
2022-12-27T02:42:14.270Z,0
2022-12-27T02:43:14.478Z,0
2022-12-27T02:44:14.152Z,0
2022-12-27T02:45:15.346Z,0
2022-12-27T02:46:19.940Z,0
2022-12-27T02:47:16.627Z,0
2022-12-27T02:48:16.425Z,0
2022-12-27T02:49:17.676Z,0
2022-12-27T02:50:17.878Z,0
2022-12-27T02:51:18.173Z,0
2022-12-27T02:52:18.442Z,0
2022-12-27T02:53:19.687Z,0
2022-12-27T02:54:19.908Z,0
2022-12-27T02:55:20.568Z,0
2022-12-27T02:56:21.516Z,0
2022-12-27T02:57:22.067Z,0
2022-12-27T02:58:21.815Z,0
2022-12-27T02:59:23.332Z,0
2022-12-27T03:00:22.723Z,0
2022-12-27T03:01:24.727Z,0
2022-12-27T03:02:26.483Z,0
2022-12-27T03:03:26.461Z,0
2022-12-27T03:04:26.394Z,0
2022-12-27T03:05:27.611Z,0
2022-12-27T03:06:28.552Z,0
2022-12-27T03:07:28.781Z,0
2022-12-27T03:08:29.554Z,0
2022-12-27T03:09:30.748Z,0
2022-12-27T03:10:30.950Z,0
2022-12-27T03:11:32.165Z,0
2022-12-27T03:12:32.670Z,0
2022-12-27T03:13:32.716Z,0
2022-12-27T03:14:33.627Z,0
2022-12-27T03:15:38.810Z,0
2022-12-27T03:16:35.589Z,0
2022-12-27T03:17:36.269Z,0
2022-12-27T03:18:36.966Z,0
2022-12-27T03:19:38.184Z,0
2022-12-27T03:20:39.123Z,0
2022-12-27T03:21:40.354Z,0
2022-12-27T03:22:40.320Z,0
2022-12-27T03:23:41.526Z,0
2022-12-27T03:24:42.034Z,0
2022-12-27T03:25:42.230Z,0
2022-12-27T03:26:43.167Z,0
2022-12-27T03:27:43.814Z,0
2022-12-27T03:28:45.127Z,0
2022-12-27T03:29:45.045Z,0
2022-12-27T03:30:46.162Z,0
2022-12-27T03:31:46.170Z,0
2022-12-27T03:32:47.404Z,0
2022-12-27T03:33:47.303Z,0
2022-12-27T03:34:48.762Z,0
2022-12-27T03:35:48.684Z,0
2022-12-27T03:36:49.648Z,0
2022-12-27T03:37:50.892Z,0
2022-12-27T03:38:50.915Z,0
2022-12-27T03:39:50.543Z,0
2022-12-27T03:40:51.753Z,0
2022-12-27T03:41:52.697Z,0
2022-12-27T03:42:53.901Z,0
2022-12-27T03:43:54.112Z,0
2022-12-27T03:44:54.040Z,0
2022-12-27T03:45:55.271Z,0
2022-12-27T03:46:55.591Z,0
2022-12-27T03:47:55.977Z,0
2022-12-27T03:48:57.713Z,0
2022-12-27T03:49:58.244Z,0
2022-12-27T03:50:58.165Z,0
2022-12-27T03:51:58.557Z,0
2022-12-27T03:52:58.503Z,0
2022-12-27T03:53:59.155Z,0
2022-12-27T03:54:59.807Z,0
2022-12-27T03:56:01.300Z,0
2022-12-27T03:57:01.813Z,0
2022-12-27T03:58:02.956Z,0
2022-12-27T03:59:02.941Z,0
2022-12-27T04:00:02.685Z,0
2022-12-27T04:01:03.329Z,0
2022-12-27T04:02:04.535Z,0
2022-12-27T04:03:04.949Z,0
2022-12-27T04:04:03.900Z,0
2022-12-27T04:05:05.158Z,0
2022-12-27T04:06:05.653Z,0
2022-12-27T04:07:05.333Z,0
2022-12-27T04:08:06.643Z,0
2022-12-27T04:09:06.684Z,0
2022-12-27T04:10:06.348Z,0
2022-12-27T04:11:07.258Z,0
2022-12-27T04:12:08.755Z,0
2022-12-27T04:13:08.966Z,0
2022-12-27T04:14:09.903Z,0
2022-12-27T04:15:09.823Z,0
2022-12-27T04:16:11.254Z,0
2022-12-27T04:17:11.264Z,0
2022-12-27T04:18:10.941Z,0
2022-12-27T04:19:12.546Z,0
2022-12-27T04:20:12.508Z,0
2022-12-27T04:21:13.451Z,0
2022-12-27T04:22:13.419Z,0
2022-12-27T04:23:14.953Z,0
2022-12-27T04:24:15.154Z,0
2022-12-27T04:25:16.102Z,0
2022-12-27T04:26:16.329Z,0
2022-12-27T04:27:16.268Z,0
2022-12-27T04:28:17.185Z,0
2022-12-27T04:29:18.202Z,0
2022-12-27T04:30:19.427Z,0
2022-12-27T04:31:20.116Z,0
2022-12-27T04:32:20.151Z,0
2022-12-27T04:33:21.104Z,0
2022-12-27T04:34:22.602Z,0
2022-12-27T04:35:22.831Z,0
2022-12-27T04:36:22.518Z,0
2022-12-27T04:37:23.869Z,0
2022-12-27T04:38:23.907Z,0
2022-12-27T04:39:23.907Z,0
2022-12-27T04:40:24.569Z,0
2022-12-27T04:41:24.946Z,0
2022-12-27T04:42:26.482Z,0
2022-12-27T04:43:26.400Z,0
2022-12-27T04:44:26.610Z,0
2022-12-27T04:45:31.729Z,0
2022-12-27T04:46:27.305Z,0
2022-12-27T04:47:27.272Z,0
2022-12-27T04:48:27.225Z,0
2022-12-27T04:49:28.249Z,0
2022-12-27T04:50:28.911Z,0
2022-12-27T04:51:29.853Z,0
2022-12-27T04:52:30.061Z,0
2022-12-27T04:53:30.047Z,0
2022-12-27T04:54:30.678Z,0
2022-12-27T04:55:31.571Z,0
2022-12-27T04:56:32.221Z,0
2022-12-27T04:57:33.171Z,0
2022-12-27T04:58:33.852Z,0
2022-12-27T04:59:35.196Z,0
2022-12-27T05:00:34.830Z,0
2022-12-27T05:01:36.852Z,0
2022-12-27T05:02:38.067Z,0
2022-12-27T05:03:37.648Z,0
2022-12-27T05:04:37.614Z,0
2022-12-27T05:05:38.564Z,0
2022-12-27T05:06:40.063Z,0
2022-12-27T05:07:40.605Z,0
2022-12-27T05:08:41.139Z,0
2022-12-27T05:09:41.584Z,0
2022-12-27T05:10:41.521Z,0
2022-12-27T05:11:42.165Z,0
2022-12-27T05:12:42.808Z,0
2022-12-27T05:13:44.021Z,0
2022-12-27T05:14:43.942Z,0
2022-12-27T05:15:45.240Z,0
2022-12-27T05:16:45.230Z,0
2022-12-27T05:17:46.206Z,0
2022-12-27T05:18:46.762Z,0
2022-12-27T05:19:46.664Z,0
2022-12-27T05:20:47.453Z,0
2022-12-27T05:21:48.107Z,0
2022-12-27T05:22:49.076Z,0
2022-12-27T05:23:49.764Z,0
2022-12-27T05:24:51.020Z,0
2022-12-27T05:25:51.264Z,0
2022-12-27T05:26:51.201Z,0
2022-12-27T05:27:52.127Z,0
2022-12-27T05:28:53.040Z,0
2022-12-27T05:29:54.083Z,0
2022-12-27T05:30:55.424Z,0
2022-12-27T05:31:56.901Z,0
2022-12-27T05:32:57.404Z,0
2022-12-27T05:33:57.360Z,0
2022-12-27T05:34:57.622Z,0
2022-12-27T05:35:58.148Z,0
2022-12-27T05:36:58.384Z,0
2022-12-27T05:38:05.942Z,0
2022-12-27T05:38:59.477Z,0
2022-12-27T05:40:00.253Z,0
2022-12-27T05:41:00.975Z,0
2022-12-27T05:42:01.596Z,0
2022-12-27T05:43:02.522Z,0
2022-12-27T05:44:08.844Z,0
2022-12-27T05:45:04.360Z,0
2022-12-27T05:46:04.276Z,0
2022-12-27T05:47:05.527Z,0
2022-12-27T05:48:05.331Z,0
2022-12-27T05:49:06.000Z,0
2022-12-27T05:50:07.353Z,0
2022-12-27T05:51:08.586Z,0
2022-12-27T05:52:09.086Z,0
2022-12-27T05:53:09.323Z,0
2022-12-27T05:54:09.598Z,0
2022-12-27T05:55:10.104Z,0
2022-12-27T05:56:10.333Z,0
2022-12-27T05:57:10.831Z,0
2022-12-27T05:58:10.760Z,0
2022-12-27T05:59:10.684Z,0
2022-12-27T06:00:11.724Z,0
2022-12-27T06:01:12.984Z,0
2022-12-27T06:02:14.094Z,0
2022-12-27T06:03:13.793Z,0
2022-12-27T06:04:14.220Z,0
2022-12-27T06:05:14.130Z,0
2022-12-27T06:06:15.104Z,0
2022-12-27T06:07:15.310Z,0
2022-12-27T06:08:15.538Z,0
2022-12-27T06:09:15.758Z,0
2022-12-27T06:10:16.550Z,0
2022-12-27T06:11:17.774Z,0
2022-12-27T06:12:17.689Z,0
2022-12-27T06:13:19.241Z,0
2022-12-27T06:14:19.169Z,0
2022-12-27T06:15:19.548Z,0
2022-12-27T06:16:20.197Z,0
2022-12-27T06:17:20.155Z,0
2022-12-27T06:18:21.400Z,0
2022-12-27T06:19:21.675Z,0
2022-12-27T06:20:21.869Z,0
2022-12-27T06:21:22.894Z,0
2022-12-27T06:22:23.108Z,0
2022-12-27T06:23:23.340Z,0
2022-12-27T06:24:24.303Z,0
2022-12-27T06:25:30.292Z,0
2022-12-27T06:26:25.570Z,0
2022-12-27T06:27:25.761Z,0
2022-12-27T06:28:26.409Z,0
2022-12-27T06:29:27.618Z,0
2022-12-27T06:30:31.596Z,0
2022-12-27T06:31:28.892Z,0
2022-12-27T06:32:29.143Z,0
2022-12-27T06:33:28.822Z,0
2022-12-27T06:34:30.053Z,0
2022-12-27T06:35:30.283Z,0
2022-12-27T06:36:31.523Z,0
2022-12-27T06:37:32.045Z,0
2022-12-27T06:38:31.981Z,0
2022-12-27T06:39:33.256Z,0
2022-12-27T06:40:33.877Z,0
2022-12-27T06:41:34.119Z,0
2022-12-27T06:42:34.320Z,0
2022-12-27T06:43:34.973Z,0
2022-12-27T06:44:36.233Z,0
2022-12-27T06:45:37.027Z,0
2022-12-27T06:46:37.216Z,0
2022-12-27T06:47:37.881Z,0
2022-12-27T06:48:39.038Z,0
2022-12-27T06:49:39.312Z,0
2022-12-27T06:50:39.926Z,0
2022-12-27T06:51:40.181Z,0
2022-12-27T06:52:40.385Z,0
2022-12-27T06:53:40.913Z,0
2022-12-27T06:54:40.890Z,0
2022-12-27T06:55:41.639Z,0
2022-12-27T06:56:42.555Z,0
2022-12-27T06:57:43.204Z,0
2022-12-27T06:58:43.862Z,0
2022-12-27T06:59:49.464Z,0
2022-12-27T07:00:45.736Z,0
2022-12-27T07:01:47.811Z,0
2022-12-27T07:02:47.887Z,0
2022-12-27T07:03:47.002Z,0
2022-12-27T07:04:48.295Z,0
2022-12-27T07:05:48.512Z,0
2022-12-27T07:06:49.024Z,0
2022-12-27T07:07:49.532Z,0
2022-12-27T07:08:50.097Z,0
2022-12-27T07:09:50.653Z,0
2022-12-27T07:10:50.962Z,0
2022-12-27T07:11:51.891Z,0
2022-12-27T07:12:53.342Z,0
2022-12-27T07:13:52.641Z,0
2022-12-27T07:14:52.871Z,0
2022-12-27T07:15:54.175Z,0
2022-12-27T07:16:54.125Z,0
2022-12-27T07:17:54.077Z,0
2022-12-27T07:18:55.659Z,0
2022-12-27T07:19:56.169Z,0
2022-12-27T07:20:56.158Z,0
2022-12-27T07:21:57.411Z,0
2022-12-27T07:22:57.051Z,0
2022-12-27T07:23:57.743Z,0
2022-12-27T07:24:58.689Z,0
2022-12-27T07:25:58.906Z,0
2022-12-27T07:26:59.537Z,0
2022-12-27T07:28:00.170Z,0
2022-12-27T07:29:01.371Z,0
2022-12-27T07:30:02.814Z,0
2022-12-27T07:31:02.424Z,0
2022-12-27T07:32:02.573Z,0
2022-12-27T07:33:02.573Z,0
2022-12-27T07:34:03.599Z,0
2022-12-27T07:35:04.129Z,0
2022-12-27T07:36:04.326Z,0
2022-12-27T07:37:05.288Z,0
2022-12-27T07:38:04.958Z,0
2022-12-27T07:39:06.483Z,0
2022-12-27T07:40:06.981Z,0
2022-12-27T07:41:06.712Z,0
2022-12-27T07:42:14.135Z,0
2022-12-27T07:43:08.379Z,0
2022-12-27T07:44:08.880Z,0
2022-12-27T07:45:08.824Z,0
2022-12-27T07:46:10.021Z,0
2022-12-27T07:47:10.238Z,0
2022-12-27T07:48:10.912Z,0
2022-12-27T07:49:17.522Z,5.63
2022-12-27T07:50:13.401Z,5.63
2022-12-27T07:51:13.843Z,5.63
2022-12-27T07:52:14.456Z,5.63
2022-12-27T07:53:14.653Z,5.63
2022-12-27T07:54:15.303Z,5.63
2022-12-27T07:55:15.563Z,5.63
2022-12-27T07:56:18.936Z,5.63
2022-12-27T07:57:16.273Z,5.63
2022-12-27T07:58:16.797Z,5.63
2022-12-27T07:59:17.037Z,5.63
2022-12-27T08:00:17.550Z,5.63
2022-12-27T08:01:18.533Z,11.25
2022-12-27T08:02:19.729Z,11.25
2022-12-27T08:03:20.169Z,11.25
2022-12-27T08:04:20.187Z,5.63
2022-12-27T08:05:24.438Z,5.63
2022-12-27T08:06:21.619Z,11.25
2022-12-27T08:07:21.560Z,11.25
2022-12-27T08:08:22.239Z,11.25
2022-12-27T08:09:23.568Z,5.63
2022-12-27T08:10:23.705Z,5.63
2022-12-27T08:11:24.459Z,11.25
2022-12-27T08:12:25.412Z,11.25
2022-12-27T08:13:26.948Z,11.25
2022-12-27T08:14:26.597Z,11.25
2022-12-27T08:15:27.796Z,11.25
2022-12-27T08:16:28.394Z,11.25
2022-12-27T08:17:28.717Z,11.25
2022-12-27T08:18:29.086Z,11.25
2022-12-27T08:19:30.062Z,11.25
2022-12-27T08:20:31.317Z,16.88
2022-12-27T08:21:32.335Z,16.88
2022-12-27T08:22:32.877Z,16.88
2022-12-27T08:23:32.834Z,11.25
2022-12-27T08:24:33.076Z,11.25
2022-12-27T08:25:33.316Z,11.25
2022-12-27T08:26:33.581Z,11.25
2022-12-27T08:27:34.517Z,11.25
2022-12-27T08:28:35.751Z,11.25
2022-12-27T08:29:35.972Z,11.25
2022-12-27T08:30:35.733Z,11.25
2022-12-27T08:31:36.156Z,11.25
2022-12-27T08:32:37.659Z,11.25
2022-12-27T08:33:37.593Z,11.25
2022-12-27T08:34:38.256Z,11.25
2022-12-27T08:36:53.203Z,11.25
2022-12-27T08:37:12.984Z,11.25
2022-12-27T08:38:12.199Z,11.25
2022-12-27T08:39:12.273Z,11.25
2022-12-27T08:40:18.968Z,11.25
2022-12-27T08:41:14.217Z,11.25
2022-12-27T08:42:14.696Z,16.88
2022-12-27T08:43:14.662Z,16.88
2022-12-27T08:44:15.610Z,16.88
2022-12-27T08:45:17.874Z,16.88
2022-12-27T08:46:17.841Z,16.88
2022-12-27T08:47:18.516Z,16.88
2022-12-27T08:48:19.909Z,16.88
2022-12-27T08:49:19.868Z,22.5
2022-12-27T08:50:20.437Z,16.88
2022-12-27T08:51:46.986Z,16.88
2022-12-27T08:52:35.580Z,16.88
2022-12-27T08:53:35.216Z,16.88
2022-12-27T08:54:36.492Z,16.88
2022-12-27T08:55:36.489Z,16.88
2022-12-27T08:56:37.013Z,16.88
2022-12-27T08:57:37.510Z,16.88
2022-12-27T08:58:37.728Z,16.88
2022-12-27T08:59:38.264Z,16.88
2022-12-27T09:00:38.760Z,16.88
2022-12-27T09:01:39.540Z,22.5
2022-12-27T09:02:40.038Z,22.5
2022-12-27T09:03:40.335Z,22.5
2022-12-27T09:04:40.840Z,22.5
2022-12-27T09:05:46.820Z,28.13
2022-12-27T09:06:41.753Z,28.13
2022-12-27T09:07:42.446Z,28.13
2022-12-27T09:08:43.687Z,28.13
2022-12-27T09:09:43.611Z,22.5
2022-12-27T09:10:44.857Z,22.5
2022-12-27T09:11:45.125Z,28.13
2022-12-27T09:12:45.743Z,33.75
2022-12-27T09:13:45.981Z,39.38
2022-12-27T09:14:45.947Z,39.38
2022-12-27T09:15:47.414Z,50.63
2022-12-27T09:16:48.007Z,39.38
2022-12-27T09:17:48.530Z,39.38
2022-12-27T09:18:48.673Z,39.38
2022-12-27T09:19:49.170Z,39.38
2022-12-27T09:20:49.430Z,39.38
2022-12-27T09:21:49.930Z,33.75
2022-12-27T09:22:50.424Z,39.38
2022-12-27T09:23:51.687Z,39.38
2022-12-27T09:24:51.897Z,39.38
2022-12-27T09:25:52.456Z,33.75
2022-12-27T09:26:52.714Z,33.75
2022-12-27T09:27:53.707Z,33.75
2022-12-27T09:28:54.373Z,39.38
2022-12-27T09:30:01.476Z,39.38
2022-12-27T09:30:56.313Z,39.38
2022-12-27T09:31:56.565Z,39.38
2022-12-27T09:32:57.035Z,39.38
2022-12-27T09:33:57.025Z,33.75
2022-12-27T09:34:58.241Z,33.75
2022-12-27T09:35:59.468Z,33.75
2022-12-27T09:36:59.509Z,33.75
2022-12-27T09:38:00.774Z,33.75
2022-12-27T09:39:00.998Z,33.75
2022-12-27T09:40:01.508Z,28.13
2022-12-27T09:41:01.491Z,28.13
2022-12-27T09:43:33.147Z,28.13
2022-12-27T09:44:21.151Z,33.75
2022-12-27T09:45:21.649Z,33.75
2022-12-27T09:46:21.804Z,33.75
2022-12-27T09:47:22.348Z,33.75
2022-12-27T09:48:25.089Z,39.38
2022-12-27T09:49:23.470Z,39.38
2022-12-27T09:50:23.669Z,39.38
2022-12-27T09:51:23.915Z,39.38
2022-12-27T09:52:24.856Z,39.38
2022-12-27T09:53:25.116Z,39.38
2022-12-27T09:54:25.520Z,39.38
2022-12-27T09:55:25.423Z,39.38
2022-12-27T09:56:40.788Z,39.38
2022-12-27T09:57:36.806Z,39.38
2022-12-27T09:58:27.775Z,39.38
2022-12-27T09:59:29.670Z,39.38
2022-12-27T10:00:44.259Z,33.75
2022-12-27T10:01:31.076Z,33.75
2022-12-27T10:02:31.244Z,33.75
2022-12-27T10:03:30.788Z,39.38
2022-12-27T10:05:23.716Z,39.38
2022-12-27T10:05:40.788Z,45
2022-12-27T10:06:41.364Z,56.25
2022-12-27T10:07:41.860Z,50.63
2022-12-27T10:08:42.082Z,45
2022-12-27T10:09:42.038Z,39.38
2022-12-27T10:10:42.986Z,39.38
2022-12-27T10:11:44.633Z,39.38
2022-12-27T10:12:48.119Z,39.38
2022-12-27T10:13:45.069Z,39.38
2022-12-27T10:14:46.260Z,45
2022-12-27T10:15:47.104Z,45
2022-12-27T10:16:47.726Z,50.63
2022-12-27T10:17:53.208Z,56.25
2022-12-27T10:18:48.536Z,61.88
2022-12-27T10:19:49.456Z,56.25
2022-12-27T10:20:50.717Z,50.63
2022-12-27T10:21:51.223Z,45
2022-12-27T10:22:50.885Z,39.38
2022-12-27T10:23:52.242Z,33.75
2022-12-27T10:24:51.971Z,33.75
2022-12-27T10:25:53.535Z,33.75
2022-12-27T10:26:53.770Z,33.75
2022-12-27T10:27:54.733Z,33.75
2022-12-27T10:28:59.779Z,39.38
2022-12-27T10:29:55.751Z,39.38
2022-12-27T10:30:55.988Z,39.38
2022-12-27T10:31:56.429Z,45
2022-12-27T10:32:56.385Z,50.63
2022-12-27T10:33:57.602Z,56.25
2022-12-27T10:34:57.928Z,56.25
2022-12-27T10:35:58.423Z,45
2022-12-27T10:36:58.088Z,39.38
2022-12-27T10:37:59.324Z,39.38
2022-12-27T10:38:59.565Z,39.38
2022-12-27T10:39:59.971Z,45
2022-12-27T10:40:59.883Z,56.25
2022-12-27T10:42:01.281Z,50.63
2022-12-27T10:43:01.201Z,45
2022-12-27T10:44:00.876Z,39.38
2022-12-27T10:45:01.901Z,39.38
2022-12-27T10:46:01.854Z,45
2022-12-27T10:47:03.772Z,45
2022-12-27T10:48:04.051Z,45
2022-12-27T10:49:36.395Z,50.63
2022-12-27T10:50:05.627Z,45
2022-12-27T10:51:06.175Z,45
2022-12-27T10:52:06.169Z,50.63
2022-12-27T10:53:13.651Z,56.25
2022-12-27T10:54:07.625Z,56.25
2022-12-27T10:55:07.693Z,56.25
2022-12-27T10:56:08.098Z,56.25
2022-12-27T10:57:09.096Z,45
2022-12-27T10:58:10.622Z,39.38
2022-12-27T10:59:15.673Z,39.38
2022-12-27T11:00:12.180Z,39.38
2022-12-27T11:01:12.712Z,39.38
2022-12-27T11:02:14.538Z,45
2022-12-27T11:03:13.791Z,45
2022-12-27T11:04:19.614Z,45
2022-12-27T11:05:14.409Z,45
2022-12-27T11:06:14.613Z,45
2022-12-27T11:07:15.884Z,45
2022-12-27T11:08:16.110Z,39.38
2022-12-27T11:09:16.095Z,39.38
2022-12-27T11:10:17.475Z,39.38
2022-12-27T11:11:16.894Z,39.38
2022-12-27T11:12:17.871Z,39.38
2022-12-27T11:13:19.093Z,45
2022-12-27T11:14:19.300Z,45
2022-12-27T11:15:19.950Z,45
2022-12-27T11:16:19.879Z,45
2022-12-27T11:17:20.845Z,39.38
2022-12-27T11:18:22.092Z,39.38
2022-12-27T11:19:22.733Z,45
2022-12-27T11:20:22.944Z,50.63
2022-12-27T11:21:38.827Z,50.63
2022-12-27T11:22:24.065Z,56.25
2022-12-27T11:23:25.002Z,67.5
2022-12-27T11:24:25.971Z,73.13
2022-12-27T11:25:26.748Z,78.75
2022-12-27T11:26:26.677Z,84.38
2022-12-27T11:27:27.907Z,90
2022-12-27T11:28:27.825Z,78.75
2022-12-27T11:29:29.086Z,78.75
2022-12-27T11:30:29.304Z,78.75
2022-12-27T11:31:29.176Z,78.75
2022-12-27T11:32:29.398Z,84.38
2022-12-27T11:33:36.092Z,84.38
2022-12-27T11:34:30.293Z,78.75
2022-12-27T11:35:31.678Z,78.75
2022-12-27T11:36:31.890Z,73.13
2022-12-27T11:37:31.838Z,67.5
2022-12-27T11:38:33.046Z,61.88
2022-12-27T11:39:33.011Z,61.88
2022-12-27T11:40:34.267Z,61.88
2022-12-27T11:41:41.471Z,56.25
2022-12-27T11:42:35.985Z,50.63
2022-12-27T11:43:35.941Z,50.63
2022-12-27T11:44:37.209Z,50.63
2022-12-27T11:45:37.795Z,61.88
2022-12-27T11:46:38.286Z,73.13
2022-12-27T11:47:38.286Z,90
2022-12-27T11:48:39.481Z,101.25
2022-12-27T11:49:39.744Z,106.88
2022-12-27T11:50:40.245Z,101.25
2022-12-27T11:51:40.180Z,95.63
2022-12-27T11:52:40.855Z,101.25
2022-12-27T11:53:41.811Z,78.75
2022-12-27T11:54:42.358Z,73.13
2022-12-27T11:55:42.462Z,67.5
2022-12-27T11:56:43.676Z,67.5
2022-12-27T11:57:43.935Z,67.5
2022-12-27T11:58:44.569Z,67.5
2022-12-27T11:59:45.512Z,61.88
2022-12-27T12:00:46.467Z,61.88
2022-12-27T12:01:48.076Z,61.88
2022-12-27T12:02:48.810Z,67.5
2022-12-27T12:03:49.674Z,78.75
2022-12-27T12:04:50.545Z,78.75
2022-12-27T12:05:51.223Z,84.38
2022-12-27T12:06:51.171Z,84.38
2022-12-27T12:07:52.432Z,84.38
2022-12-27T12:08:52.637Z,78.75
2022-12-27T12:09:52.880Z,78.75
2022-12-27T12:10:52.540Z,78.75
2022-12-27T12:12:00.135Z,78.75
2022-12-27T12:12:54.391Z,78.75
2022-12-27T12:13:54.902Z,78.75
2022-12-27T12:14:55.199Z,78.75
2022-12-27T12:15:55.521Z,78.75
2022-12-27T12:16:56.011Z,78.75
2022-12-27T12:17:56.257Z,78.75
2022-12-27T12:18:57.185Z,78.75
2022-12-27T12:19:56.907Z,78.75
2022-12-27T12:21:03.621Z,78.75
2022-12-27T12:21:58.675Z,78.75
2022-12-27T12:22:59.915Z,78.75
2022-12-27T12:24:00.423Z,73.13
2022-12-27T12:25:00.674Z,84.38
2022-12-27T12:26:01.264Z,90
2022-12-27T12:27:06.877Z,123.75
2022-12-27T12:28:02.411Z,84.38
2022-12-27T12:29:17.542Z,123.75
2022-12-27T12:30:03.061Z,84.38
2022-12-27T12:31:03.280Z,90
2022-12-27T12:32:03.469Z,90
2022-12-27T12:33:04.142Z,95.63
2022-12-27T12:34:05.187Z,112.5
2022-12-27T12:35:06.112Z,95.63
2022-12-27T12:36:07.457Z,95.63
2022-12-27T12:37:09.620Z,90
2022-12-27T12:38:07.892Z,84.38
2022-12-27T12:39:08.536Z,84.38
2022-12-27T12:40:09.776Z,90
2022-12-27T12:41:09.814Z,84.38
2022-12-27T12:42:11.062Z,95.63
2022-12-27T12:43:11.682Z,90
2022-12-27T12:44:11.678Z,106.88
2022-12-27T12:45:13.204Z,112.5
2022-12-27T12:46:13.791Z,281.25
2022-12-27T12:47:14.069Z,135
2022-12-27T12:48:14.293Z,112.5
2022-12-27T12:49:13.949Z,140.63
2022-12-27T12:50:24.734Z,343.13
2022-12-27T12:51:15.672Z,320.63
2022-12-27T12:52:15.893Z,163.13
2022-12-27T12:53:15.598Z,118.13
2022-12-27T12:54:17.162Z,213.75
2022-12-27T12:55:17.410Z,174.38
2022-12-27T12:56:17.457Z,135
2022-12-27T12:57:18.391Z,123.75
2022-12-27T12:58:18.341Z,135
2022-12-27T12:59:19.577Z,112.5
2022-12-27T13:00:20.822Z,106.88
2022-12-27T13:01:20.685Z,112.5
2022-12-27T13:02:21.688Z,140.63
2022-12-27T13:03:22.750Z,101.25
2022-12-27T13:04:22.749Z,95.63
2022-12-27T13:05:23.739Z,90
2022-12-27T13:06:25.033Z,95.63
2022-12-27T13:07:24.956Z,95.63
2022-12-27T13:08:26.479Z,84.38
2022-12-27T13:09:26.130Z,84.38
2022-12-27T13:10:27.496Z,84.38
2022-12-27T13:11:27.773Z,84.38
2022-12-27T13:12:28.269Z,78.75
2022-12-27T13:13:28.789Z,78.75
2022-12-27T13:14:29.341Z,78.75
2022-12-27T13:15:29.310Z,78.75
2022-12-27T13:16:30.449Z,67.5
2022-12-27T13:17:30.652Z,67.5
2022-12-27T13:18:41.763Z,73.13
2022-12-27T13:19:31.967Z,78.75
2022-12-27T13:20:32.174Z,78.75
2022-12-27T13:21:32.111Z,73.13
2022-12-27T13:22:33.607Z,73.13
2022-12-27T13:23:33.854Z,67.5
2022-12-27T13:24:40.875Z,118.13
2022-12-27T13:25:35.550Z,67.5
2022-12-27T13:26:35.865Z,73.13
2022-12-27T13:27:35.816Z,129.38
2022-12-27T13:28:36.055Z,118.13
2022-12-27T13:29:36.705Z,101.25
2022-12-27T13:30:37.580Z,112.5
2022-12-27T13:31:39.120Z,106.88
2022-12-27T13:32:39.606Z,67.5
2022-12-27T13:33:39.645Z,73.13
2022-12-27T13:34:39.574Z,78.75
2022-12-27T13:35:40.800Z,129.38
2022-12-27T13:36:41.153Z,90
2022-12-27T13:37:42.090Z,106.88
2022-12-27T13:38:43.079Z,90
2022-12-27T13:39:43.999Z,84.38
2022-12-27T13:40:43.954Z,101.25
2022-12-27T13:41:47.675Z,90
2022-12-27T13:42:46.188Z,84.38
2022-12-27T13:43:46.766Z,78.75
2022-12-27T13:44:46.436Z,78.75
2022-12-27T13:45:47.537Z,78.75
2022-12-27T13:46:54.364Z,73.13
2022-12-27T13:47:47.763Z,67.5
2022-12-27T13:48:49.255Z,61.88
2022-12-27T13:49:49.489Z,56.25
2022-12-27T13:50:49.778Z,50.63
2022-12-27T13:51:50.467Z,50.63
2022-12-27T13:52:54.532Z,45
2022-12-27T13:53:52.485Z,50.63
2022-12-27T13:54:53.113Z,78.75
2022-12-27T13:55:53.088Z,45
2022-12-27T13:57:12.351Z,39.38
2022-12-27T13:58:12.908Z,39.38
2022-12-27T13:59:16.148Z,39.38
2022-12-27T14:00:13.757Z,39.38
2022-12-27T14:01:14.091Z,39.38
2022-12-27T14:02:14.854Z,33.75
2022-12-27T14:03:15.329Z,33.75
2022-12-27T14:04:15.552Z,28.13
2022-12-27T14:05:15.890Z,28.13
2022-12-27T14:06:16.850Z,22.5
2022-12-27T14:07:16.852Z,22.5
2022-12-27T14:08:18.378Z,22.5